createdAt,value
2022-09-02T00:02:00.328Z,12.89
2022-09-02T00:04:27.163Z,12.93
2022-09-02T00:06:54.616Z,12.85
2022-09-02T00:09:23.609Z,12.89
2022-09-02T00:11:52.159Z,12.86
2022-09-02T00:14:26.496Z,12.86
2022-09-02T00:16:53.325Z,12.79
2022-09-02T00:19:22.165Z,12.80
2022-09-02T00:21:49.708Z,12.84
2022-09-02T00:24:17.403Z,12.85
2022-09-02T00:26:45.308Z,12.86
2022-09-02T00:29:14.637Z,12.86
2022-09-02T00:31:44.539Z,12.88
2022-09-02T00:34:11.907Z,12.89
2022-09-02T00:36:39.066Z,12.84
2022-09-02T00:39:08.815Z,12.90
2022-09-02T00:41:38.403Z,12.96
2022-09-02T00:44:11.765Z,13.16
2022-09-02T00:46:39.600Z,13.04
2022-09-02T00:49:25.834Z,13.07
2022-09-02T00:52:02.956Z,13.08
2022-09-02T00:54:32.630Z,13.09
2022-09-02T00:57:01.657Z,13.12
2022-09-02T00:59:43.632Z,13.11
2022-09-02T01:02:11.003Z,13.11
2022-09-02T01:04:37.856Z,13.17
2022-09-02T01:07:06.117Z,13.20
2022-09-02T01:09:33.561Z,13.21
2022-09-02T01:12:03.584Z,13.21
2022-09-02T01:14:30.504Z,13.23
2022-09-02T01:17:00.589Z,13.22
2022-09-02T01:19:35.416Z,13.26
2022-09-02T01:22:02.554Z,13.36
2022-09-02T01:24:32.699Z,13.39
2022-09-02T01:27:00.110Z,13.33
2022-09-02T01:29:28.447Z,13.35
2022-09-02T01:31:55.745Z,13.39
2022-09-02T01:34:22.919Z,13.46
2022-09-02T01:36:49.680Z,13.39
2022-09-02T01:39:16.724Z,13.35
2022-09-02T01:41:43.602Z,13.33
2022-09-02T01:44:10.704Z,13.31
2022-09-02T01:46:37.893Z,13.27
2022-09-02T01:49:05.622Z,13.24
2022-09-02T01:51:32.564Z,13.27
2022-09-02T01:53:59.273Z,13.22
2022-09-02T01:56:26.034Z,13.22
2022-09-02T01:58:52.814Z,13.21
2022-09-02T02:01:19.766Z,13.16
2022-09-02T02:03:47.139Z,13.16
2022-09-02T02:06:16.895Z,13.14
2022-09-02T02:08:44.923Z,13.10
2022-09-02T02:11:12.065Z,13.09
2022-09-02T02:13:38.765Z,13.03
2022-09-02T02:16:06.456Z,13.02
2022-09-02T02:18:33.215Z,13.04
2022-09-02T02:20:59.901Z,13.00
2022-09-02T02:23:26.931Z,13.00
2022-09-02T02:25:53.608Z,12.96
2022-09-02T02:28:20.527Z,12.98
2022-09-02T02:30:47.338Z,12.87
2022-09-02T02:33:14.149Z,12.88
2022-09-02T02:35:41.600Z,12.77
2022-09-02T02:38:08.716Z,12.71
2022-09-02T02:40:35.475Z,12.68
2022-09-02T02:43:02.250Z,12.61
2022-09-02T02:45:29.085Z,12.56
2022-09-02T02:47:55.852Z,12.52
2022-09-02T02:50:23.972Z,12.45
2022-09-02T02:52:53.413Z,12.42
2022-09-02T02:55:21.274Z,12.38
2022-09-02T02:57:51.977Z,12.34
2022-09-02T03:00:20.926Z,12.31
2022-09-02T03:02:48.875Z,12.24
2022-09-02T03:05:16.447Z,12.21
2022-09-02T03:07:43.490Z,12.11
2022-09-02T03:10:11.668Z,12.07
2022-09-02T03:12:39.778Z,12.03
2022-09-02T03:15:08.547Z,11.95
2022-09-02T03:17:35.445Z,11.89
2022-09-02T03:20:03.184Z,11.84
2022-09-02T03:22:29.865Z,11.77
2022-09-02T03:24:56.580Z,11.72
2022-09-02T03:27:23.360Z,11.65
2022-09-02T03:29:50.091Z,11.66
2022-09-02T03:32:16.809Z,11.57
2022-09-02T03:34:43.632Z,11.57
2022-09-02T03:37:10.526Z,11.49
2022-09-02T03:39:40.961Z,11.45
2022-09-02T03:42:08.251Z,11.44
2022-09-02T03:44:46.537Z,11.35
2022-09-02T03:47:14.091Z,11.30
2022-09-02T03:49:41.070Z,11.21
2022-09-02T03:52:10.873Z,11.24
2022-09-02T03:54:37.629Z,11.17
2022-09-02T03:57:04.587Z,11.10
2022-09-02T03:59:32.798Z,11.10
2022-09-02T04:02:02.826Z,11.06
2022-09-02T04:04:30.794Z,10.96
2022-09-02T04:06:58.091Z,10.98
2022-09-02T04:09:25.402Z,11.04
2022-09-02T04:11:52.230Z,10.96
2022-09-02T04:14:19.359Z,10.92
2022-09-02T04:16:46.028Z,10.89
2022-09-02T04:19:13.730Z,10.89
2022-09-02T04:21:41.839Z,10.88
2022-09-02T04:24:11.127Z,10.91
2022-09-02T04:26:44.877Z,10.92
2022-09-02T04:29:12.780Z,10.93
2022-09-02T04:31:39.479Z,10.96
2022-09-02T04:34:07.490Z,10.97
2022-09-02T04:36:34.748Z,10.96
2022-09-02T04:39:01.653Z,11.01
2022-09-02T04:41:30.714Z,11.11
2022-09-02T04:43:58.972Z,11.11
2022-09-02T04:46:31.362Z,11.12
2022-09-02T04:49:01.558Z,11.12
2022-09-02T04:51:28.211Z,11.17
2022-09-02T04:53:55.498Z,11.20
2022-09-02T04:56:28.738Z,11.21
2022-09-02T04:58:55.957Z,11.19
2022-09-02T05:01:29.146Z,11.21
2022-09-02T05:03:55.933Z,11.27
2022-09-02T05:06:28.657Z,11.30
2022-09-02T05:08:57.259Z,11.40
2022-09-02T05:11:28.565Z,11.44
2022-09-02T05:13:58.220Z,11.52
2022-09-02T05:16:28.029Z,11.61
2022-09-02T05:18:54.954Z,11.67
2022-09-02T05:21:23.361Z,11.76
2022-09-02T05:23:54.469Z,11.82
2022-09-02T05:26:22.722Z,11.98
2022-09-02T05:28:49.626Z,12.04
2022-09-02T05:31:19.240Z,12.19
2022-09-02T05:33:46.773Z,12.30
2022-09-02T05:36:23.593Z,12.47
2022-09-02T05:38:51.872Z,12.56
2022-09-02T05:41:23.557Z,12.65
2022-09-02T05:43:52.619Z,12.77
2022-09-02T05:46:22.393Z,12.86
2022-09-02T05:49:09.309Z,13.00
2022-09-02T05:51:51.009Z,13.02
2022-09-02T05:54:26.038Z,13.19
2022-09-02T05:56:55.361Z,13.36
2022-09-02T05:59:23.770Z,13.40
2022-09-02T06:01:50.570Z,13.38
2022-09-02T06:04:18.337Z,13.51
2022-09-02T06:06:45.148Z,13.65
2022-09-02T06:09:14.117Z,13.67
2022-09-02T06:11:46.108Z,13.75
2022-09-02T06:14:15.446Z,13.81
2022-09-02T06:16:43.252Z,13.96
2022-09-02T06:19:10.544Z,13.98
2022-09-02T06:21:38.716Z,13.86
2022-09-02T06:24:10.986Z,13.99
2022-09-02T06:26:39.089Z,14.16
2022-09-02T06:29:06.966Z,14.26
2022-09-02T06:31:34.917Z,14.34
2022-09-02T06:34:01.844Z,14.42
2022-09-02T06:36:30.860Z,14.48
2022-09-02T06:38:59.587Z,14.58
2022-09-02T06:41:30.257Z,14.72
2022-09-02T06:43:59.254Z,14.60
2022-09-02T06:46:30.289Z,14.84
2022-09-02T06:48:57.393Z,15.26
2022-09-02T06:51:27.580Z,15.33
2022-09-02T06:53:54.422Z,15.31
2022-09-02T06:56:21.177Z,15.58
2022-09-02T06:58:47.898Z,15.69
2022-09-02T07:01:20.251Z,15.98
2022-09-02T07:04:05.600Z,16.38
2022-09-02T07:06:41.469Z,16.67
2022-09-02T07:09:10.256Z,17.11
2022-09-02T07:11:38.029Z,16.91
2022-09-02T07:14:05.311Z,17.16
2022-09-02T07:16:42.937Z,17.38
2022-09-02T07:19:14.012Z,17.42
2022-09-02T07:21:42.236Z,17.42
2022-09-02T07:24:11.532Z,17.61
2022-09-02T07:26:38.607Z,17.97
2022-09-02T07:29:08.887Z,17.92
2022-09-02T07:31:37.962Z,17.90
2022-09-02T07:34:06.655Z,18.27
2022-09-02T07:36:35.451Z,18.27
2022-09-02T07:39:04.319Z,18.09
2022-09-02T07:41:31.075Z,18.05
2022-09-02T07:43:59.698Z,17.41
2022-09-02T07:46:26.814Z,17.45
2022-09-02T07:48:53.483Z,17.81
2022-09-02T07:51:20.377Z,17.86
2022-09-02T07:53:47.261Z,18.12
2022-09-02T07:56:14.517Z,18.26
2022-09-02T07:58:43.262Z,18.50
2022-09-02T08:01:10.999Z,18.75
2022-09-02T08:03:39.670Z,19.18
2022-09-02T08:06:07.908Z,19.12
2022-09-02T08:08:34.928Z,19.13
2022-09-02T08:13:34.360Z,19.40
2022-09-02T08:16:02.658Z,19.41
2022-09-02T08:18:32.132Z,19.64
2022-09-02T08:20:58.775Z,19.92
2022-09-02T08:23:36.612Z,19.81
2022-09-02T08:26:05.690Z,19.85
2022-09-02T08:28:33.088Z,20.03
2022-09-02T08:30:59.837Z,20.00
2022-09-02T08:33:26.572Z,20.02
2022-09-02T08:35:53.666Z,20.42
2022-09-02T08:38:22.172Z,20.43
2022-09-02T08:40:51.231Z,20.43
2022-09-02T08:43:37.435Z,20.82
2022-09-02T08:46:05.218Z,20.77
2022-09-02T08:48:45.494Z,20.85
2022-09-02T08:51:20.598Z,20.35
2022-09-02T08:53:54.510Z,20.88
2022-09-02T08:56:21.267Z,21.03
2022-09-02T08:58:56.793Z,20.82
2022-09-02T09:01:31.251Z,20.86
2022-09-02T09:04:18.496Z,21.13
2022-09-02T09:06:54.120Z,20.99
2022-09-02T09:09:20.693Z,21.21
2022-09-02T09:12:02.940Z,21.14
2022-09-02T09:14:44.833Z,21.34
2022-09-02T09:17:33.597Z,21.34
2022-09-02T09:20:06.840Z,21.64
2022-09-02T09:22:37.485Z,22.09
2022-09-02T09:25:13.956Z,21.76
2022-09-02T09:27:40.737Z,22.36
2022-09-02T09:30:14.868Z,22.11
2022-09-02T09:32:47.154Z,22.39
2022-09-02T09:35:16.405Z,21.76
2022-09-02T09:37:48.484Z,21.96
2022-09-02T09:40:18.285Z,22.45
2022-09-02T09:42:49.753Z,22.17
2022-09-02T09:45:23.809Z,21.40
2022-09-02T09:48:44.524Z,21.24
2022-09-02T09:51:13.627Z,20.94
2022-09-02T09:53:40.963Z,21.42
2022-09-02T09:56:30.561Z,21.18
2022-09-02T09:58:57.301Z,20.75
2022-09-02T10:01:33.759Z,20.76
2022-09-02T10:04:01.044Z,20.48
2022-09-02T10:06:33.449Z,20.66
2022-09-02T10:09:05.857Z,20.57
2022-09-02T10:11:33.701Z,20.14
2022-09-02T10:14:03.597Z,20.08
2022-09-02T10:16:42.812Z,20.48
2022-09-02T10:19:44.740Z,21.57
2022-09-02T10:22:59.426Z,22.51
2022-09-02T10:25:45.446Z,22.27
2022-09-02T10:28:26.780Z,22.09
2022-09-02T10:31:08.745Z,22.65
2022-09-02T10:33:47.704Z,23.16
2022-09-02T10:36:50.859Z,23.31
2022-09-02T10:39:46.428Z,23.76
2022-09-02T10:42:26.569Z,23.18
2022-09-02T10:45:13.884Z,21.98
2022-09-02T10:47:40.775Z,21.78
2022-09-02T10:50:38.704Z,21.22
2022-09-02T10:53:17.100Z,21.17
2022-09-02T10:55:58.622Z,20.89
2022-09-02T10:58:39.324Z,22.00
2022-09-02T11:01:10.776Z,22.80
2022-09-02T11:04:00.469Z,23.58
2022-09-02T11:06:40.396Z,23.94
2022-09-02T11:09:37.649Z,24.21
2022-09-02T11:12:07.774Z,23.65
2022-09-02T11:14:41.983Z,24.62
2022-09-02T11:17:25.123Z,24.62
2022-09-02T11:20:00.276Z,25.18
2022-09-02T11:23:04.535Z,25.03
2022-09-02T11:25:44.633Z,23.77
2022-09-02T11:29:05.435Z,23.31
2022-09-02T11:31:39.211Z,23.03
2022-09-02T11:34:17.293Z,22.68
2022-09-02T11:36:44.128Z,22.17
2022-09-02T11:39:14.518Z,21.98
2022-09-02T11:41:48.492Z,21.73
2022-09-02T11:44:31.308Z,21.42
2022-09-02T11:47:08.045Z,21.94
2022-09-02T11:49:44.973Z,21.57
2022-09-02T11:53:01.300Z,21.84
2022-09-02T11:55:50.531Z,21.27
2022-09-02T11:58:39.648Z,22.22
2022-09-02T12:01:15.571Z,22.37
2022-09-02T12:04:27.233Z,21.79
2022-09-02T12:06:37.188Z,21.64
2022-09-02T12:09:07.203Z,21.60
2022-09-02T12:11:43.826Z,21.51
2022-09-02T12:14:25.642Z,21.28
2022-09-02T12:17:03.762Z,21.41
2022-09-02T12:19:41.632Z,21.19
2022-09-02T12:22:17.675Z,20.89
2022-09-02T12:25:01.059Z,21.25
2022-09-02T12:27:32.932Z,21.64
2022-09-02T12:30:00.188Z,22.06
2022-09-02T12:32:45.324Z,21.77
2022-09-02T12:35:29.442Z,21.82
2022-09-02T12:38:16.513Z,21.60
2022-09-02T12:41:04.253Z,22.12
2022-09-02T12:43:48.017Z,22.14
2022-09-02T12:46:45.152Z,22.06
2022-09-02T12:49:34.772Z,21.99
2022-09-02T12:52:03.364Z,22.21
2022-09-02T12:54:49.142Z,22.30
2022-09-02T12:57:19.583Z,22.12
2022-09-02T12:59:48.312Z,22.85
2022-09-02T13:02:33.759Z,23.38
2022-09-02T13:05:16.047Z,22.90
2022-09-02T13:07:49.032Z,22.33
2022-09-02T13:10:24.731Z,22.26
2022-09-02T13:13:24.372Z,22.45
2022-09-02T13:16:19.171Z,22.46
2022-09-02T13:19:04.607Z,22.32
2022-09-02T13:22:02.787Z,21.86
2022-09-02T13:24:44.724Z,21.61
2022-09-02T13:27:30.120Z,21.37
2022-09-02T13:30:14.264Z,21.28
2022-09-02T13:32:41.192Z,22.02
2022-09-02T13:35:18.320Z,21.54
2022-09-02T13:37:59.670Z,21.60
2022-09-02T13:40:29.839Z,21.53
2022-09-02T13:42:59.233Z,22.06
2022-09-02T13:45:28.288Z,22.92
2022-09-02T13:48:19.400Z,22.77
2022-09-02T13:50:48.715Z,22.23
2022-09-02T13:53:59.100Z,21.95
2022-09-02T13:56:25.614Z,21.41
2022-09-02T13:58:56.702Z,21.27
2022-09-02T14:01:42.224Z,21.02
2022-09-02T14:04:15.572Z,20.94
2022-09-02T14:06:46.204Z,20.65
2022-09-02T14:09:29.213Z,20.62
2022-09-02T14:11:57.552Z,20.81
2022-09-02T14:14:25.523Z,21.31
2022-09-02T14:16:52.772Z,21.77
2022-09-02T14:19:22.266Z,22.25
2022-09-02T14:21:56.175Z,22.55
2022-09-02T14:24:29.080Z,22.78
2022-09-02T14:26:58.082Z,22.93
2022-09-02T14:29:25.223Z,23.52
2022-09-02T14:32:24.407Z,23.54
2022-09-02T14:35:11.632Z,23.72
2022-09-02T14:37:54.732Z,23.73
2022-09-02T14:40:38.267Z,23.41
2022-09-02T14:43:14.186Z,23.00
2022-09-02T14:45:46.386Z,22.80
2022-09-02T14:48:22.436Z,22.56
2022-09-02T14:50:50.414Z,22.30
2022-09-02T14:53:22.525Z,22.21
2022-09-02T14:55:52.781Z,22.07
2022-09-02T14:58:24.672Z,21.78
2022-09-02T15:01:00.028Z,21.67
2022-09-02T15:03:29.125Z,21.30
2022-09-02T15:05:55.948Z,21.09
2022-09-02T15:08:23.344Z,20.95
2022-09-02T15:10:51.558Z,20.92
2022-09-02T15:13:32.562Z,20.88
2022-09-02T15:15:59.535Z,20.75
2022-09-02T15:18:26.508Z,20.95
2022-09-02T15:20:54.183Z,21.14
2022-09-02T15:23:21.870Z,21.19
2022-09-02T15:25:48.587Z,21.34
2022-09-02T15:28:15.251Z,21.70
2022-09-02T15:30:42.029Z,21.86
2022-09-02T15:33:12.859Z,22.04
2022-09-02T15:35:54.896Z,21.92
2022-09-02T15:38:21.623Z,21.79
2022-09-02T15:40:48.365Z,21.87
2022-09-02T15:43:16.974Z,21.96
2022-09-02T15:45:48.379Z,21.77
2022-09-02T15:48:15.857Z,21.75
2022-09-02T15:50:43.054Z,21.52
2022-09-02T15:53:14.986Z,21.23
2022-09-02T15:55:41.751Z,20.97
2022-09-02T15:58:08.472Z,21.10
2022-09-02T16:00:35.156Z,21.37
2022-09-02T16:03:02.128Z,21.61
2022-09-02T16:05:30.707Z,21.42
2022-09-02T16:07:58.068Z,21.18
2022-09-02T16:10:24.750Z,21.26
2022-09-02T16:12:51.440Z,21.22
2022-09-02T16:15:18.746Z,21.49
2022-09-02T16:17:45.379Z,21.48
2022-09-02T16:20:12.104Z,21.34
2022-09-02T16:22:38.760Z,21.26
2022-09-02T16:25:05.892Z,21.19
2022-09-02T16:27:51.286Z,20.98
2022-09-02T16:30:19.154Z,20.72
2022-09-02T16:32:47.723Z,20.54
2022-09-02T16:35:14.425Z,20.25
2022-09-02T16:37:41.700Z,20.23
2022-09-02T16:40:09.896Z,20.38
2022-09-02T16:42:38.405Z,20.22
2022-09-02T16:45:05.852Z,20.24
2022-09-02T16:47:32.547Z,19.98
2022-09-02T16:49:59.236Z,19.83
2022-09-02T16:52:26.061Z,19.92
2022-09-02T16:54:52.720Z,19.80
2022-09-02T16:57:19.379Z,19.74
2022-09-02T16:59:46.006Z,19.61
2022-09-02T17:02:12.740Z,19.55
2022-09-02T17:04:39.415Z,19.51
2022-09-02T17:07:06.148Z,19.62
2022-09-02T17:09:32.804Z,19.40
2022-09-02T17:11:59.449Z,19.28
2022-09-02T17:14:26.183Z,19.13
2022-09-02T17:16:52.964Z,19.07
2022-09-02T17:19:21.843Z,18.96
2022-09-02T17:21:53.752Z,18.82
2022-09-02T17:24:23.055Z,18.84
2022-09-02T17:26:51.589Z,18.84
2022-09-02T17:29:47.505Z,18.92
2022-09-02T17:32:09.639Z,18.93
2022-09-02T17:34:36.903Z,18.87
2022-09-02T17:37:04.578Z,18.63
2022-09-02T17:39:31.452Z,18.64
2022-09-02T17:41:58.168Z,18.53
2022-09-02T17:44:26.697Z,18.69
2022-09-02T17:46:57.987Z,18.54
2022-09-02T17:49:24.637Z,18.48
2022-09-02T17:51:51.513Z,18.65
2022-09-02T17:54:19.687Z,18.63
2022-09-02T17:57:17.462Z,18.83
2022-09-02T18:00:10.193Z,18.57
2022-09-02T18:02:37.560Z,18.44
2022-09-02T18:05:04.235Z,18.41
2022-09-02T18:07:51.243Z,18.43
2022-09-02T18:10:20.433Z,18.48
2022-09-02T18:12:47.151Z,18.30
2022-09-02T18:15:18.605Z,18.15
2022-09-02T18:17:52.323Z,18.21
2022-09-02T18:20:43.080Z,18.09
2022-09-02T18:23:31.160Z,18.09
2022-09-02T18:26:35.854Z,18.05
2022-09-02T18:29:23.864Z,17.89
2022-09-02T18:32:06.037Z,17.84
2022-09-02T18:34:47.782Z,17.77
2022-09-02T18:37:25.620Z,17.67
2022-09-02T18:40:15.408Z,17.63
2022-09-02T18:43:24.404Z,17.52
2022-09-02T18:45:54.641Z,17.51
2022-09-02T18:48:26.999Z,17.29
2022-09-02T18:50:57.343Z,17.24
2022-09-02T18:53:31.648Z,17.24
2022-09-02T18:56:06.019Z,17.30
2022-09-02T18:58:44.585Z,17.23
2022-09-02T19:01:21.622Z,17.04
2022-09-02T19:03:48.766Z,17.00
2022-09-02T19:06:21.256Z,16.99
2022-09-02T19:08:49.378Z,16.88
2022-09-02T19:11:18.003Z,16.94
2022-09-02T19:13:50.414Z,16.77
2022-09-02T19:16:23.238Z,16.89
2022-09-02T19:18:51.160Z,16.88
2022-09-02T19:21:31.861Z,16.67
2022-09-02T19:23:59.892Z,16.74
2022-09-02T19:26:26.540Z,16.65
2022-09-02T19:28:55.550Z,16.50
2022-09-02T19:31:27.189Z,16.50
2022-09-02T19:33:56.939Z,16.48
2022-09-02T19:36:31.266Z,16.57
2022-09-02T19:38:58.420Z,16.43
2022-09-02T19:41:26.507Z,16.41
2022-09-02T19:43:54.216Z,16.39
2022-09-02T19:46:55.640Z,16.31
2022-09-02T19:49:08.518Z,16.31
2022-09-02T19:51:35.204Z,16.23
2022-09-02T19:54:03.336Z,16.15
2022-09-02T19:56:30.021Z,16.18
2022-09-02T19:58:56.976Z,16.12
2022-09-02T20:01:23.754Z,16.26
2022-09-02T20:03:50.439Z,16.29
2022-09-02T20:06:17.168Z,16.24
2022-09-02T20:08:43.896Z,16.04
2022-09-02T20:11:10.648Z,16.02
2022-09-02T20:13:41.221Z,15.90
2022-09-02T20:16:17.258Z,15.97
2022-09-02T20:18:48.294Z,16.00
2022-09-02T20:21:31.305Z,15.83
2022-09-02T20:24:03.862Z,15.69
2022-09-02T20:26:41.177Z,15.59
2022-09-02T20:29:34.938Z,15.53
2022-09-02T20:32:07.731Z,15.46
2022-09-02T20:34:54.663Z,15.38
2022-09-02T20:38:05.702Z,15.46
2022-09-02T20:41:19.847Z,15.38
2022-09-02T20:44:06.160Z,15.47
2022-09-02T20:46:56.416Z,15.27
2022-09-02T20:49:26.751Z,15.17
2022-09-02T20:52:00.895Z,15.08
2022-09-02T20:54:38.904Z,15.02
2022-09-02T20:57:17.324Z,14.92
2022-09-02T20:59:59.859Z,14.88
2022-09-02T21:02:32.733Z,14.85
2022-09-02T21:05:08.885Z,14.76
2022-09-02T21:07:45.399Z,14.70
2022-09-02T21:10:34.772Z,14.56
2022-09-02T21:13:15.516Z,14.52
2022-09-02T21:15:49.584Z,14.38
2022-09-02T21:18:30.274Z,14.37
2022-09-02T21:21:21.905Z,14.44
2022-09-02T21:24:07.055Z,14.37
2022-09-02T21:26:39.744Z,14.37
2022-09-02T21:29:35.711Z,14.32
2022-09-02T21:32:33.190Z,14.22
2022-09-02T21:35:09.838Z,14.17
2022-09-02T21:37:39.830Z,14.25
2022-09-02T21:40:13.167Z,14.24
2022-09-02T21:42:48.745Z,14.19
2022-09-02T21:45:41.483Z,14.18
2022-09-02T21:48:20.946Z,14.15
2022-09-02T21:50:58.677Z,14.17
2022-09-02T21:54:00.819Z,14.10
2022-09-02T21:56:51.321Z,14.09
2022-09-02T22:00:01.236Z,14.11
2022-09-02T22:02:58.198Z,14.10
2022-09-02T22:05:43.112Z,14.05
2022-09-02T22:08:18.292Z,14.04
2022-09-02T22:11:17.160Z,13.91
2022-09-02T22:13:45.388Z,13.87
2022-09-02T22:16:13.476Z,13.97
2022-09-02T22:18:49.134Z,13.84
2022-09-02T22:21:48.151Z,13.81
2022-09-02T22:24:29.103Z,13.97
2022-09-02T22:27:22.322Z,13.86
2022-09-02T22:30:14.536Z,13.82
2022-09-02T22:32:46.822Z,13.76
2022-09-02T22:35:32.587Z,13.73
2022-09-02T22:38:13.374Z,13.67
2022-09-02T22:40:46.396Z,13.61
2022-09-02T22:43:19.204Z,13.63
2022-09-02T22:46:14.701Z,13.65
2022-09-02T22:49:32.480Z,13.58
2022-09-02T22:52:27.174Z,13.53
2022-09-02T22:54:56.780Z,13.59
2022-09-02T22:57:57.027Z,13.51
2022-09-02T23:00:26.557Z,13.50
2022-09-02T23:03:10.302Z,13.48
2022-09-02T23:06:01.168Z,13.50
2022-09-02T23:08:27.877Z,13.40
2022-09-02T23:11:11.703Z,13.34
2022-09-02T23:13:58.912Z,13.33
2022-09-02T23:16:31.586Z,13.27
2022-09-02T23:19:36.004Z,13.30
2022-09-02T23:22:20.915Z,13.26
2022-09-02T23:25:20.932Z,13.22
2022-09-02T23:27:56.077Z,13.22
2022-09-02T23:30:22.849Z,13.16
2022-09-02T23:33:02.721Z,13.13
2022-09-02T23:35:35.396Z,13.03
2022-09-02T23:38:38.530Z,13.02
2022-09-02T23:41:08.602Z,13.04
2022-09-02T23:43:36.035Z,13.00
2022-09-02T23:46:19.448Z,13.00
2022-09-02T23:49:15.044Z,12.93
2022-09-02T23:51:55.834Z,12.97
2022-09-02T23:54:50.809Z,12.87
2022-09-02T23:57:56.189Z,12.83
